METAR Data
IDs: Format: Raw Decoded Include TAF

Data at: 1807 UTC 16 Oct 2021

KCLL 161753Z 01012KT 10SM CLR 23/06 A3032 RMK AO2 SLP264 T02280061 10228 20122 58009
KCLL 161653Z 03014KT 10SM CLR 22/05 A3034 RMK AO2 SLP270 T02170050
KCLL 161553Z 02012G19KT 10SM CLR 21/07 A3035 RMK AO2 SLP273 T02060067
KCLL 161453Z 03011KT 10SM CLR 19/07 A3035 RMK AO2 SLP273 T01890072 51020
KCLL 161353Z 01008KT 10SM CLR 16/08 A3033 RMK AO2 SLP268 T01610078
KCLL 161253Z 35006KT 10SM CLR 13/08 A3031 RMK AO2 SLP261 T01330078
KCLL 161153Z AUTO 01007KT 10SM CLR 13/07 A3029 RMK AO2 SLP253 70012 T01330072 10183 20133 52020
KCLL 161053Z AUTO 01008KT 10SM CLR 14/07 A3026 RMK AO2 SLP245 T01440072
KCLL 160953Z AUTO 01011KT 10SM CLR 16/07 A3025 RMK AO2 SLP241 T01560072
KCLL 160853Z AUTO 01012G20KT 10SM CLR 17/07 A3023 RMK AO2 SLP232 T01670072 51009
KCLL 160753Z AUTO 36011KT 10SM CLR 17/08 A3021 RMK AO2 SLP226 T01670083
KCLL 160653Z AUTO 36011KT 10SM CLR 18/08 A3022 RMK AO2 SLP228 T01780083
KCLL 160553Z AUTO 36012KT 10SM CLR 19/09 A3020 RMK AO2 SLP222 T01890094 10250 20189 403170189 51027
KCLL 160453Z AUTO 36011KT 10SM CLR 19/11 A3019 RMK AO2 SLP220 T01940106
KCLL 160353Z AUTO 36009KT 10SM CLR 21/13 A3016 RMK AO2 SLP210 T02060133
KCLL 160253Z AUTO 35013G20KT 10SM CLR 21/14 A3012 RMK AO2 SLP195 T02110144 51035
KCLL 160153Z AUTO 34011KT 10SM CLR 22/16 A3008 RMK AO2 SLP183 T02220156
KCLL 160053Z 34012KT 10SM CLR 23/16 A3006 RMK AO2 SLP174 T02330161
KCLL 152353Z 34017G22KT 10SM CLR 25/17 A3002 RMK AO2 SLP159 60012 T02500172 10317 20250 53024
KCLL 152253Z 34014KT 10SM CLR 27/18 A2999 RMK AO2 SLP150 T02670178
KCLL 152153Z 34014KT 10SM CLR 27/19 A2997 RMK AO2 SLP143 T02720189
KCLL 152053Z 33011KT 10SM FEW029 SCT036 29/22 A2994 RMK AO2 RAB02E23 SLP135 P0012 60012 T02940222 55005
KCLL 152016Z 28007KT 3SM -RA SCT034 BKN050 BKN100 27/23 A2994 RMK AO2 RAB02 P0012 T02720233
KCLL 152007Z 26013KT 1 3/4SM +RA FEW031 BKN039 BKN055 27/23 A2994 RMK AO2 RAB02 P0010 T02720233
KCLL 151953Z 32009KT 10SM FEW034 SCT040 BKN110 31/22 A2993 RMK AO2 SLP129 T03060222
KCLL 151853Z 27010KT 10SM FEW029 31/23 A2994 RMK AO2 SLP134 T03110228
KCLL 151753Z 25008KT 220V280 10SM SCT022 SCT029 30/23 A2996 RMK AO2 SLP140 T03000233 10306 20228 58005
KCLL 151653Z 26010KT 10SM SCT015 BKN020 28/23 A2997 RMK AO2 SLP145 T02830233
KCLL 151651Z 26009KT 10SM SCT015 BKN020 29/23 A2997 RMK AO2
KCLL 151629Z VRB06KT 10SM BKN011 28/24 A2997 RMK AO2 T02780239
KCLL 151553Z 23006KT 10SM BKN006 OVC011 26/24 A2997 RMK AO2 SLP145 T02610239
KCLL 151529Z 25007KT 10SM BKN006 OVC011 26/24 A2997 RMK AO2 T02610239
KCLL 151453Z 21006KT 7SM OVC003 25/23 A2996 RMK AO2 SLP141 T02500233 51020
KCLL 151353Z 25004KT 5SM BR OVC003 23/22 A2994 RMK AO2 SLP135 T02330222
KCLL 151258Z 00000KT 3SM BR OVC003 23/22 A2992 RMK AO2 T02280222
KCLL 151253Z 00000KT 1 1/4SM BR OVC003 23/22 A2992 RMK AO2 SLP126 T02280217
KCLL 151230Z AUTO 00000KT 1/2SM FG VV002 23/22 A2991 RMK AO2 T02280222
KCLL 151211Z AUTO 00000KT 1/4SM FG VV002 23/22 A2990 RMK AO2 T02280217
KCLL 151153Z AUTO 18003KT 1/2SM FG VV001 23/22 A2990 RMK AO2 SLP120 70001 T02280217 10239 20228 53010
KCLL 151053Z AUTO 19004KT 3/4SM BR VV002 23/22 A2989 RMK AO2 SLP115 T02280222
KCLL 151005Z AUTO 19004KT 3/4SM BR VV002 23/22 A2988 RMK AO2 T02330222
KCLL 150953Z AUTO 19006KT 1SM BR VV002 23/22 A2987 RMK AO2 SLP110 T02330222
KCLL 150924Z AUTO 19005KT 1 1/2SM BR OVC002 23/22 A2987 RMK AO2 T02330222
KCLL 150917Z AUTO 19006KT 2SM BR OVC002 23/22 A2987 RMK AO2 T02330222
KCLL 150853Z AUTO 19007KT 5SM BR OVC002 23/22 A2987 RMK AO2 SLP110 T02330222 58001
KCLL 150835Z AUTO 18005KT 2SM BR OVC002 23/23 A2987 RMK AO2 T02330228
KCLL 150819Z AUTO 17006KT 1SM BR VV002 23/23 A2987 RMK AO2 T02330228
KCLL 150753Z AUTO 17007KT 1/2SM FG VV002 24/23 A2987 RMK AO2 SLP111 T02390228
KCLL 150737Z AUTO 16007KT 3/4SM BR VV002 23/22 A2987 RMK AO2 T02330222
KCLL 150732Z AUTO 16005KT 2 1/2SM BR BKN002 23/22 A2987 RMK AO2 T02330222
KCLL 150723Z AUTO 16003KT 8SM SCT003 23/22 A2987 RMK AO2 T02330217
KCLL 150653Z AUTO 16003KT 10SM CLR 23/22 A2987 RMK AO2 SLP110 T02330217
KCLL 150644Z AUTO 15004KT 10SM SCT019 23/22 A2987 RMK AO2 T02330217
KCLL 150615Z AUTO 14003KT 10SM BKN020 23/22 A2987 RMK AO2 T02330217